Time,TemperatureF,DewpointF,PressureIn,WindDirection,WindDirectionDegrees,WindSpeedMPH,WindSpeedGustMPH,Humidity,HourlyPrecipIn,Conditions,Clouds,dailyrainin,SoftwareType,DateUTC
2013-02-12 00:00:00,48.7,47.1,29.91,West,260,8.1,8.1,94,0.00,CLR,OVC,0.12,WeatherDisplay:10.37,2013-02-12 05:00:00,
2013-02-12 00:05:00,48.7,47.1,29.91,West,260,8.1,8.1,94,0.00,RA,OVC,0.00,WeatherDisplay:10.37,2013-02-12 05:05:00,
2013-02-12 00:10:00,48.7,47.1,29.91,West,260,8.1,8.1,94,0.00,RA,OVC,0.00,WeatherDisplay:10.37,2013-02-12 05:10:00,
2013-02-12 00:15:00,48.7,47.1,29.92,West,260,8.1,8.1,94,0.00,CLR,OVC,0.00,WeatherDisplay:10.37,2013-02-12 05:15:00,
2013-02-12 00:20:00,48.7,47.1,29.92,West,260,6.9,6.9,94,0.00,BKN,OVC,0.00,WeatherDisplay:10.37,2013-02-12 05:20:00,
2013-02-12 00:25:00,48.6,46.9,29.92,West,260,6.9,6.9,94,0.00,BKN,OVC,0.00,WeatherDisplay:10.37,2013-02-12 05:25:00,
2013-02-12 00:30:00,48.6,46.9,29.91,West,260,6.9,6.9,94,0.00,BKN,OVC,0.00,WeatherDisplay:10.37,2013-02-12 05:30:00,
2013-02-12 00:35:00,48.6,46.9,29.91,West,260,6.9,6.9,94,0.00,BKN,OVC,0.00,WeatherDisplay:10.37,2013-02-12 05:35:00,
2013-02-12 00:40:00,48.4,46.4,29.90,West,260,6.9,6.9,93,0.00,BKN,OVC,0.00,WeatherDisplay:10.37,2013-02-12 05:40:00,
2013-02-12 00:45:00,48.4,46.4,29.89,West,260,6.9,6.9,93,0.00,BKN,OVC,0.00,WeatherDisplay:10.37,2013-02-12 05:45:00,
2013-02-12 00:50:00,48.4,46.4,29.90,West,260,6.9,6.9,93,0.00,BKN,OVC,0.00,WeatherDisplay:10.37,2013-02-12 05:50:00,
2013-02-12 00:55:00,48.2,46.3,29.90,West,260,6.9,6.9,93,0.00,BKN,OVC,0.00,WeatherDisplay:10.37,2013-02-12 05:55:00,
2013-02-12 01:00:00,48.2,46.3,29.90,West,260,6.9,6.9,93,0.00,BKN,OVC,0.00,WeatherDisplay:10.37,2013-02-12 06:00:00,
2013-02-12 01:05:00,48.2,46.3,29.90,West,260,6.9,6.9,93,0.00,BKN,OVC,0.00,WeatherDisplay:10.37,2013-02-12 06:05:00,
2013-02-12 01:10:00,48.2,46.3,29.89,West,260,6.9,6.9,93,0.00,BKN,OVC,0.00,WeatherDisplay:10.37,2013-02-12 06:10:00,
2013-02-12 01:15:00,47.8,45.9,29.91,West,260,6.9,6.9,93,0.00,BKN,OVC,0.00,WeatherDisplay:10.37,2013-02-12 06:15:00,
2013-02-12 01:20:00,47.8,45.9,29.91,WNW,290,4.6,4.6,93,0.00,BKN,OVC,0.00,WeatherDisplay:10.37,2013-02-12 06:20:00,
2013-02-12 01:25:00,47.7,45.7,29.91,WNW,290,4.6,4.6,93,0.00,CLR,OVC,0.00,WeatherDisplay:10.37,2013-02-12 06:25:00,
2013-02-12 01:30:00,47.7,45.7,29.90,WNW,290,4.6,4.6,93,0.00,BKN,OVC,0.00,WeatherDisplay:10.37,2013-02-12 06:30:00,
2013-02-12 01:35:00,47.7,45.7,29.91,WNW,290,4.6,4.6,93,0.00,BKN,OVC,0.00,WeatherDisplay:10.37,2013-02-12 06:35:00,
2013-02-12 01:40:00,47.5,45.6,29.90,WNW,290,4.6,4.6,93,0.00,BKN,OVC,0.00,WeatherDisplay:10.37,2013-02-12 06:40:00,
2013-02-12 01:45:00,47.5,45.6,29.90,WNW,290,4.6,4.6,93,0.00,CLR,OVC,0.00,WeatherDisplay:10.37,2013-02-12 06:45:00,
2013-02-12 01:50:00,47.3,45.4,29.91,WNW,290,4.6,4.6,93,0.00,BKN,OVC,0.00,WeatherDisplay:10.37,2013-02-12 06:50:00,
2013-02-12 01:55:00,47.1,45.2,29.91,WNW,290,4.6,4.6,93,0.00,BKN,OVC,0.00,WeatherDisplay:10.37,2013-02-12 06:55:00,
2013-02-12 02:00:00,47.1,45.2,29.91,WNW,290,4.6,4.6,93,0.00,CLR,OVC,0.00,WeatherDisplay:10.37,2013-02-12 07:00:00,
2013-02-12 02:05:00,47.1,45.2,29.91,WNW,290,4.6,4.6,93,0.00,CLR,OVC,0.00,WeatherDisplay:10.37,2013-02-12 07:05:00,
2013-02-12 02:10:00,47.1,45.2,29.91,WNW,290,4.6,4.6,93,0.00,BKN,OVC,0.00,WeatherDisplay:10.37,2013-02-12 07:10:00,
2013-02-12 02:15:00,46.9,45.0,29.91,WNW,290,4.6,4.6,93,0.00,CLR,OVC,0.00,WeatherDisplay:10.37,2013-02-12 07:15:00,
2013-02-12 02:20:00,46.9,45.0,29.90,West,260,5.8,5.8,93,0.00,SCT,OVC,0.00,WeatherDisplay:10.37,2013-02-12 07:20:00,
2013-02-12 02:25:00,46.8,44.8,29.89,West,260,5.8,5.8,93,0.00,CLR,OVC,0.00,WeatherDisplay:10.37,2013-02-12 07:25:00,
2013-02-12 02:30:00,46.6,44.7,29.89,West,260,5.8,5.8,93,0.00,SCT,OVC,0.00,WeatherDisplay:10.37,2013-02-12 07:30:00,
2013-02-12 02:35:00,46.6,44.7,29.89,West,260,5.8,5.8,93,0.00,CLR,OVC,0.00,WeatherDisplay:10.37,2013-02-12 07:35:00,
2013-02-12 02:40:00,46.4,44.5,29.89,West,260,5.8,5.8,93,0.00,SCT,OVC,0.00,WeatherDisplay:10.37,2013-02-12 07:40:00,
2013-02-12 02:45:00,46.2,44.3,29.88,West,260,5.8,5.8,93,0.00,CLR,OVC,0.00,WeatherDisplay:10.37,2013-02-12 07:45:00,
2013-02-12 02:50:00,46.2,44.3,29.89,West,260,5.8,5.8,93,0.00,SCT,OVC,0.00,WeatherDisplay:10.37,2013-02-12 07:50:00,
2013-02-12 02:55:00,46.2,44.3,29.89,West,260,5.8,5.8,93,0.00,SCT,OVC,0.00,WeatherDisplay:10.37,2013-02-12 07:55:00,
2013-02-12 03:00:00,46.0,44.1,29.89,West,260,5.8,5.8,93,0.00,CLR,OVC,0.00,WeatherDisplay:10.37,2013-02-12 08:00:00,
2013-02-12 03:05:00,46.0,44.1,29.89,West,260,5.8,5.8,93,0.00,CLR,OVC,0.00,WeatherDisplay:10.37,2013-02-12 08:05:00,
2013-02-12 03:10:00,46.0,44.1,29.89,West,260,5.8,5.8,93,0.00,SCT,OVC,0.00,WeatherDisplay:10.37,2013-02-12 08:10:00,
2013-02-12 03:15:00,46.0,44.1,29.89,West,260,5.8,5.8,93,0.00,CLR,OVC,0.00,WeatherDisplay:10.37,2013-02-12 08:15:00,
2013-02-12 03:20:00,46.0,44.1,29.90,West,270,6.9,6.9,93,0.00,CLR,OVC,0.00,WeatherDisplay:10.37,2013-02-12 08:20:00,
2013-02-12 03:25:00,45.9,44.0,29.90,West,270,6.9,6.9,93,0.00,CLR,OVC,0.00,WeatherDisplay:10.37,2013-02-12 08:25:00,
2013-02-12 03:30:00,45.7,43.8,29.90,West,270,6.9,6.9,93,0.00,CLR,OVC,0.00,WeatherDisplay:10.37,2013-02-12 08:30:00,
2013-02-12 03:35:00,45.5,43.6,29.91,West,270,6.9,6.9,93,0.00,CLR,OVC,0.00,WeatherDisplay:10.37,2013-02-12 08:35:00,
2013-02-12 03:40:00,45.3,43.4,29.90,West,270,6.9,6.9,93,0.00,CLR,OVC,0.00,WeatherDisplay:10.37,2013-02-12 08:40:00,
2013-02-12 03:45:00,45.3,43.4,29.90,West,270,6.9,6.9,93,0.00,CLR,OVC,0.00,WeatherDisplay:10.37,2013-02-12 08:45:00,
2013-02-12 03:50:00,45.3,43.4,29.90,West,270,6.9,6.9,93,0.00,CLR,OVC,0.00,WeatherDisplay:10.37,2013-02-12 08:50:00,
2013-02-12 03:55:00,45.1,43.2,29.89,West,270,6.9,6.9,93,0.00,CLR,OVC,0.00,WeatherDisplay:10.37,2013-02-12 08:55:00,
2013-02-12 04:00:00,45.1,43.2,29.89,West,270,6.9,6.9,93,0.00,CLR,OVC,0.00,WeatherDisplay:10.37,2013-02-12 09:00:00,
2013-02-12 04:05:00,45.1,43.2,29.89,West,270,6.9,6.9,93,0.00,CLR,OVC,0.00,WeatherDisplay:10.37,2013-02-12 09:05:00,
2013-02-12 04:10:00,45.1,43.2,29.89,West,270,6.9,6.9,93,0.00,CLR,OVC,0.00,WeatherDisplay:10.37,2013-02-12 09:10:00,
2013-02-12 04:15:00,45.0,43.1,29.91,West,270,6.9,6.9,93,0.00,CLR,OVC,0.00,WeatherDisplay:10.37,2013-02-12 09:15:00,
2013-02-12 04:20:00,44.8,42.9,29.91,WSW,250,8.1,8.1,93,0.00,CLR,OVC,0.00,WeatherDisplay:10.37,2013-02-12 09:20:00,
2013-02-12 04:25:00,44.8,42.9,29.91,WSW,250,8.1,8.1,93,0.00,CLR,OVC,0.00,WeatherDisplay:10.37,2013-02-12 09:25:00,
2013-02-12 04:30:00,44.6,42.7,29.90,WSW,250,8.1,8.1,93,0.00,CLR,OVC,0.00,WeatherDisplay:10.37,2013-02-12 09:30:00,
2013-02-12 04:35:00,44.6,42.7,29.91,WSW,250,8.1,8.1,93,0.00,CLR,OVC,0.00,WeatherDisplay:10.37,2013-02-12 09:35:00,
2013-02-12 04:40:00,44.4,42.5,29.89,WSW,250,8.1,8.1,93,0.00,CLR,OVC,0.00,WeatherDisplay:10.37,2013-02-12 09:40:00,
2013-02-12 04:45:00,44.4,42.5,29.89,WSW,250,8.1,8.1,93,0.00,CLR,OVC,0.00,WeatherDisplay:10.37,2013-02-12 09:45:00,
2013-02-12 04:50:00,44.4,42.5,29.89,WSW,250,8.1,8.1,93,0.00,CLR,OVC,0.00,WeatherDisplay:10.37,2013-02-12 09:50:00,
2013-02-12 04:55:00,44.6,42.7,29.89,WSW,250,8.1,8.1,93,0.00,CLR,OVC,0.00,WeatherDisplay:10.37,2013-02-12 09:55:00,
2013-02-12 05:00:00,44.6,42.7,29.88,WSW,250,8.1,8.1,93,0.00,CLR,OVC,0.00,WeatherDisplay:10.37,2013-02-12 10:00:00,
2013-02-12 05:05:00,44.6,42.7,29.88,WSW,250,8.1,8.1,93,0.00,CLR,OVC,0.00,WeatherDisplay:10.37,2013-02-12 10:05:00,
2013-02-12 05:10:00,44.4,42.5,29.89,WSW,250,8.1,8.1,93,0.00,CLR,OVC,0.00,WeatherDisplay:10.37,2013-02-12 10:10:00,
2013-02-12 05:15:00,44.4,42.5,29.88,WSW,250,8.1,8.1,93,0.00,CLR,OVC,0.00,WeatherDisplay:10.37,2013-02-12 10:15:00,
2013-02-12 05:20:00,44.2,42.3,29.88,WSW,250,4.6,4.6,93,0.00,BKN,OVC,0.00,WeatherDisplay:10.37,2013-02-12 10:20:00,
2013-02-12 05:25:00,44.1,42.2,29.88,WSW,250,4.6,4.6,93,0.00,CLR,OVC,0.00,WeatherDisplay:10.37,2013-02-12 10:25:00,
2013-02-12 05:30:00,44.1,42.2,29.88,WSW,250,4.6,4.6,93,0.00,CLR,OVC,0.00,WeatherDisplay:10.37,2013-02-12 10:30:00,
2013-02-12 05:35:00,43.9,42.0,29.90,WSW,250,4.6,4.6,93,0.00,CLR,OVC,0.00,WeatherDisplay:10.37,2013-02-12 10:35:00,
2013-02-12 05:40:00,43.9,42.0,29.90,WSW,250,4.6,4.6,93,0.00,BKN,OVC,0.00,WeatherDisplay:10.37,2013-02-12 10:40:00,
2013-02-12 05:45:00,43.9,42.0,29.89,WSW,250,4.6,4.6,93,0.00,CLR,OVC,0.00,WeatherDisplay:10.37,2013-02-12 10:45:00,
2013-02-12 05:50:00,43.9,42.0,29.91,WSW,250,4.6,4.6,93,0.00,CLR,OVC,0.00,WeatherDisplay:10.37,2013-02-12 10:50:00,
2013-02-12 05:55:00,43.9,42.0,29.91,WSW,250,4.6,4.6,93,0.00,CLR,OVC,0.00,WeatherDisplay:10.37,2013-02-12 10:55:00,
2013-02-12 06:00:00,43.9,42.0,29.91,WSW,250,4.6,4.6,93,0.00,CLR,OVC,0.00,WeatherDisplay:10.37,2013-02-12 11:00:00,
2013-02-12 06:05:00,43.7,41.8,29.90,WSW,250,4.6,4.6,93,0.00,CLR,OVC,0.00,WeatherDisplay:10.37,2013-02-12 11:05:00,
2013-02-12 06:10:00,43.7,41.8,29.89,WSW,250,4.6,4.6,93,0.00,BKN,OVC,0.00,WeatherDisplay:10.37,2013-02-12 11:10:00,
2013-02-12 06:15:00,43.7,41.8,29.90,WSW,250,4.6,4.6,93,0.00,CLR,OVC,0.00,WeatherDisplay:10.37,2013-02-12 11:15:00,
2013-02-12 06:20:00,43.7,41.8,29.90,West,270,6.9,6.9,93,0.00,CLR,OVC,0.00,WeatherDisplay:10.37,2013-02-12 11:20:00,
2013-02-12 06:25:00,43.7,41.8,29.91,West,270,6.9,6.9,93,0.00,BKN,OVC,0.00,WeatherDisplay:10.37,2013-02-12 11:25:00,
2013-02-12 06:30:00,43.7,41.8,29.91,West,270,6.9,6.9,93,0.00,CLR,OVC,0.00,WeatherDisplay:10.37,2013-02-12 11:30:00,
2013-02-12 06:35:00,43.7,41.8,29.91,West,270,6.9,6.9,93,0.00,BKN,OVC,0.00,WeatherDisplay:10.37,2013-02-12 11:35:00,
2013-02-12 06:40:00,43.7,41.8,29.91,West,270,6.9,6.9,93,0.00,BKN,OVC,0.00,WeatherDisplay:10.37,2013-02-12 11:40:00,
2013-02-12 06:45:00,43.7,41.8,29.91,West,270,6.9,6.9,93,0.00,BKN,OVC,0.00,WeatherDisplay:10.37,2013-02-12 11:45:00,
2013-02-12 06:50:00,43.7,41.8,29.91,West,270,6.9,6.9,93,0.00,BKN,OVC,0.00,WeatherDisplay:10.37,2013-02-12 11:50:00,
2013-02-12 06:55:00,43.5,41.6,29.91,West,270,6.9,6.9,93,0.00,BKN,OVC,0.00,WeatherDisplay:10.37,2013-02-12 11:55:00,
2013-02-12 07:00:00,43.5,41.6,29.91,West,270,6.9,6.9,93,0.00,BKN,OVC,0.00,WeatherDisplay:10.37,2013-02-12 12:00:00,
2013-02-12 07:05:00,43.5,41.6,29.91,West,270,6.9,6.9,93,0.00,BKN,OVC,0.00,WeatherDisplay:10.37,2013-02-12 12:05:00,
2013-02-12 07:10:00,43.5,41.6,29.93,West,270,6.9,6.9,93,0.00,BKN,OVC,0.00,WeatherDisplay:10.37,2013-02-12 12:10:00,
2013-02-12 07:15:00,43.5,41.6,29.93,West,270,6.9,6.9,93,0.00,BKN,OVC,0.00,WeatherDisplay:10.37,2013-02-12 12:15:00,
2013-02-12 07:20:00,43.5,41.6,29.92,WNW,290,6.9,6.9,93,0.00,BKN,OVC,0.00,WeatherDisplay:10.37,2013-02-12 12:20:00,
2013-02-12 07:25:00,43.5,41.6,29.92,WNW,290,6.9,6.9,93,0.00,BKN,OVC,0.00,WeatherDisplay:10.37,2013-02-12 12:25:00,
2013-02-12 07:30:00,43.5,41.6,29.92,WNW,290,6.9,6.9,93,0.00,BKN,OVC,0.00,WeatherDisplay:10.37,2013-02-12 12:30:00,
2013-02-12 07:35:00,43.5,41.6,29.92,WNW,290,6.9,6.9,93,0.00,BKN,OVC,0.00,WeatherDisplay:10.37,2013-02-12 12:35:00,
2013-02-12 07:40:00,43.5,41.6,29.92,WNW,290,6.9,6.9,93,0.00,BKN,OVC,0.00,WeatherDisplay:10.37,2013-02-12 12:40:00,
2013-02-12 07:45:00,43.5,41.6,29.93,WNW,290,6.9,6.9,93,0.00,BKN,OVC,0.00,WeatherDisplay:10.37,2013-02-12 12:45:00,
2013-02-12 07:50:00,43.5,41.6,29.93,WNW,290,6.9,6.9,93,0.00,BKN,OVC,0.00,WeatherDisplay:10.37,2013-02-12 12:50:00,
2013-02-12 07:55:00,43.5,41.6,29.92,WNW,290,6.9,6.9,93,0.00,BKN,OVC,0.00,WeatherDisplay:10.37,2013-02-12 12:55:00,
2013-02-12 08:00:00,43.5,41.6,29.92,WNW,290,6.9,6.9,93,0.00,BKN,OVC,0.00,WeatherDisplay:10.37,2013-02-12 13:00:00,
2013-02-12 08:05:00,43.5,41.4,29.92,WNW,290,6.9,6.9,92,0.00,BKN,OVC,0.00,WeatherDisplay:10.37,2013-02-12 13:05:00,
2013-02-12 08:10:00,43.5,41.4,29.92,WNW,290,6.9,6.9,92,0.00,BKN,OVC,0.00,WeatherDisplay:10.37,2013-02-12 13:10:00,
2013-02-12 08:15:00,43.5,41.4,29.92,WNW,290,6.9,6.9,92,0.00,BKN,OVC,0.00,WeatherDisplay:10.37,2013-02-12 13:15:00,
2013-02-12 08:20:00,43.5,41.4,29.92,West,270,6.9,6.9,92,0.00,SCT,OVC,0.00,WeatherDisplay:10.37,2013-02-12 13:20:00,
2013-02-12 08:25:00,43.5,41.4,29.92,West,270,6.9,6.9,92,0.00,SCT,OVC,0.00,WeatherDisplay:10.37,2013-02-12 13:25:00,
2013-02-12 08:30:00,43.7,41.5,29.92,West,270,6.9,6.9,92,0.00,SCT,OVC,0.00,WeatherDisplay:10.37,2013-02-12 13:30:00,
2013-02-12 08:35:00,43.9,41.7,29.91,West,270,6.9,6.9,92,0.00,SCT,OVC,0.00,WeatherDisplay:10.37,2013-02-12 13:35:00,
2013-02-12 08:40:00,43.9,41.7,29.91,West,270,6.9,6.9,92,0.00,SCT,OVC,0.00,WeatherDisplay:10.37,2013-02-12 13:40:00,
2013-02-12 08:45:00,44.1,41.9,29.91,West,270,6.9,6.9,92,0.00,SCT,OVC,0.00,WeatherDisplay:10.37,2013-02-12 13:45:00,
2013-02-12 08:50:00,44.2,42.1,29.91,West,270,6.9,6.9,92,0.00,SCT,OVC,0.00,WeatherDisplay:10.37,2013-02-12 13:50:00,
2013-02-12 08:55:00,44.2,42.1,29.91,West,270,6.9,6.9,92,0.00,SCT,OVC,0.00,WeatherDisplay:10.37,2013-02-12 13:55:00,
2013-02-12 09:00:00,44.4,42.2,29.91,West,270,6.9,6.9,92,0.00,SCT,OVC,0.00,WeatherDisplay:10.37,2013-02-12 14:00:00,
2013-02-12 09:05:00,44.4,42.2,29.91,West,270,6.9,6.9,92,0.00,SCT,OVC,0.00,WeatherDisplay:10.37,2013-02-12 14:05:00,
2013-02-12 09:10:00,44.6,42.4,29.91,West,270,6.9,6.9,92,0.00,SCT,OVC,0.00,WeatherDisplay:10.37,2013-02-12 14:10:00,
2013-02-12 09:15:00,45.0,42.8,29.91,West,270,6.9,6.9,92,0.00,SCT,OVC,0.00,WeatherDisplay:10.37,2013-02-12 14:15:00,
2013-02-12 09:20:00,45.0,42.8,29.91,WNW,300,4.6,4.6,92,0.00,SCT,OVC,0.00,WeatherDisplay:10.37,2013-02-12 14:20:00,
2013-02-12 09:25:00,45.1,42.7,29.91,WNW,300,4.6,4.6,91,0.00,SCT,OVC,0.00,WeatherDisplay:10.37,2013-02-12 14:25:00,
2013-02-12 09:30:00,45.1,42.7,29.90,WNW,300,4.6,4.6,91,0.00,SCT,OVC,0.00,WeatherDisplay:10.37,2013-02-12 14:30:00,
2013-02-12 09:35:00,45.5,42.7,29.91,WNW,300,4.6,4.6,90,0.00,SCT,OVC,0.00,WeatherDisplay:10.37,2013-02-12 14:35:00,
2013-02-12 09:40:00,45.7,42.9,29.90,WNW,300,4.6,4.6,90,0.00,SCT,OVC,0.00,WeatherDisplay:10.37,2013-02-12 14:40:00,
2013-02-12 09:45:00,46.0,42.7,29.90,WNW,300,4.6,4.6,88,0.00,SCT,OVC,0.00,WeatherDisplay:10.37,2013-02-12 14:45:00,
2013-02-12 09:50:00,46.6,42.3,29.91,WNW,300,4.6,4.6,85,0.00,SCT,OVC,0.00,WeatherDisplay:10.37,2013-02-12 14:50:00,
2013-02-12 09:55:00,47.1,41.6,29.90,WNW,300,4.6,4.6,81,0.00,SCT,OVC,0.00,WeatherDisplay:10.37,2013-02-12 14:55:00,
2013-02-12 10:00:00,47.3,41.4,29.90,WNW,300,4.6,4.6,80,0.00,SCT,OVC,0.00,WeatherDisplay:10.37,2013-02-12 15:00:00,
2013-02-12 10:05:00,47.5,41.6,29.90,WNW,300,4.6,4.6,80,0.00,SCT,OVC,0.00,WeatherDisplay:10.37,2013-02-12 15:05:00,
2013-02-12 10:10:00,47.7,40.8,29.90,WNW,300,4.6,4.6,77,0.00,SCT,OVC,0.00,WeatherDisplay:10.37,2013-02-12 15:10:00,
2013-02-12 10:15:00,48.0,40.8,29.90,WNW,300,4.6,4.6,76,0.00,SCT,OVC,0.00,WeatherDisplay:10.37,2013-02-12 15:15:00,
2013-02-12 10:20:00,48.4,40.1,29.89,North,360,3.5,3.5,73,0.00,SCT,OVC,0.00,WeatherDisplay:10.37,2013-02-12 15:20:00,
2013-02-12 10:25:00,48.7,40.5,29.90,North,360,3.5,3.5,73,0.00,SCT,OVC,0.00,WeatherDisplay:10.37,2013-02-12 15:25:00,
2013-02-12 10:30:00,49.3,39.9,29.90,North,360,3.5,3.5,70,0.00,SCT,OVC,0.00,WeatherDisplay:10.37,2013-02-12 15:30:00,
2013-02-12 10:35:00,49.6,40.3,29.90,North,360,3.5,3.5,70,0.00,SCT,OVC,0.00,WeatherDisplay:10.37,2013-02-12 15:35:00,
2013-02-12 10:40:00,49.6,40.3,29.90,North,360,3.5,3.5,70,0.00,SCT,OVC,0.00,WeatherDisplay:10.37,2013-02-12 15:40:00,
2013-02-12 10:45:00,49.6,40.3,29.91,North,360,3.5,3.5,70,0.00,SCT,OVC,0.00,WeatherDisplay:10.37,2013-02-12 15:45:00,
2013-02-12 10:50:00,50.0,40.6,29.91,North,360,3.5,3.5,70,0.00,SCT,OVC,0.00,WeatherDisplay:10.37,2013-02-12 15:50:00,
2013-02-12 10:55:00,50.7,40.2,29.90,North,360,3.5,3.5,67,0.00,SCT,OVC,0.00,WeatherDisplay:10.37,2013-02-12 15:55:00,
2013-02-12 11:00:00,51.1,39.3,29.90,North,360,3.5,3.5,64,0.00,SCT,OVC,0.00,WeatherDisplay:10.37,2013-02-12 16:00:00,
2013-02-12 11:05:00,51.6,39.4,29.90,North,360,3.5,3.5,63,0.00,SCT,OVC,0.00,WeatherDisplay:10.37,2013-02-12 16:05:00,
2013-02-12 11:10:00,51.6,39.0,29.88,North,360,3.5,3.5,62,0.00,SCT,OVC,0.00,WeatherDisplay:10.37,2013-02-12 16:10:00,
2013-02-12 11:15:00,52.2,39.5,29.88,North,360,3.5,3.5,62,0.00,SCT,OVC,0.00,WeatherDisplay:10.37,2013-02-12 16:15:00,
2013-02-12 11:20:00,52.3,39.3,29.88,WNW,300,3.5,3.5,61,0.00,BKN,OVC,0.00,WeatherDisplay:10.37,2013-02-12 16:20:00,
2013-02-12 11:25:00,52.5,39.0,29.88,WNW,300,3.5,3.5,60,0.00,BKN,OVC,0.00,WeatherDisplay:10.37,2013-02-12 16:25:00,
2013-02-12 11:30:00,52.7,39.6,29.88,WNW,300,3.5,3.5,61,0.00,BKN,OVC,0.00,WeatherDisplay:10.37,2013-02-12 16:30:00,
2013-02-12 11:35:00,52.7,38.3,29.88,WNW,300,3.5,3.5,58,0.00,BKN,OVC,0.00,WeatherDisplay:10.37,2013-02-12 16:35:00,
2013-02-12 11:40:00,52.7,38.8,29.90,WNW,300,3.5,3.5,59,0.00,BKN,OVC,0.00,WeatherDisplay:10.37,2013-02-12 16:40:00,
2013-02-12 11:45:00,52.9,39.4,29.90,WNW,300,3.5,3.5,60,0.00,BKN,OVC,0.00,WeatherDisplay:10.37,2013-02-12 16:45:00,
2013-02-12 11:50:00,52.9,39.8,29.90,WNW,300,3.5,3.5,61,0.00,BKN,OVC,0.00,WeatherDisplay:10.37,2013-02-12 16:50:00,
2013-02-12 11:55:00,52.9,40.2,29.90,WNW,300,3.5,3.5,62,0.00,BKN,OVC,0.00,WeatherDisplay:10.37,2013-02-12 16:55:00,
2013-02-12 12:00:00,52.9,40.6,29.89,WNW,300,3.5,3.5,63,0.00,BKN,OVC,0.00,WeatherDisplay:10.37,2013-02-12 17:00:00,
2013-02-12 12:05:00,53.1,40.4,29.88,WNW,300,3.5,3.5,62,0.00,BKN,OVC,0.00,WeatherDisplay:10.37,2013-02-12 17:05:00,
2013-02-12 12:10:00,53.2,39.7,29.88,WNW,300,3.5,3.5,60,0.00,BKN,OVC,0.00,WeatherDisplay:10.37,2013-02-12 17:10:00,
2013-02-12 12:15:00,53.2,39.3,29.88,WNW,300,3.5,3.5,59,0.00,BKN,OVC,0.00,WeatherDisplay:10.37,2013-02-12 17:15:00,
2013-02-12 12:20:00,53.4,40.3,29.88,WNW,300,3.5,3.5,61,0.00,BKN,OVC,0.00,WeatherDisplay:10.37,2013-02-12 17:20:00,
2013-02-12 12:25:00,53.4,40.3,29.88,WNW,300,3.5,3.5,61,0.00,BKN,OVC,0.00,WeatherDisplay:10.37,2013-02-12 17:25:00,
2013-02-12 12:30:00,53.4,40.3,29.88,WNW,300,3.5,3.5,61,0.00,BKN,OVC,0.00,WeatherDisplay:10.37,2013-02-12 17:30:00,
2013-02-12 12:35:00,53.6,40.5,29.87,WNW,300,3.5,3.5,61,0.00,BKN,OVC,0.00,WeatherDisplay:10.37,2013-02-12 17:35:00,
2013-02-12 12:40:00,53.8,40.2,29.87,WNW,300,3.5,3.5,60,0.00,BKN,OVC,0.00,WeatherDisplay:10.37,2013-02-12 17:40:00,
2013-02-12 12:45:00,53.8,39.8,29.86,WNW,300,3.5,3.5,59,0.00,BKN,OVC,0.00,WeatherDisplay:10.37,2013-02-12 17:45:00,
2013-02-12 12:50:00,54.0,39.5,29.86,WNW,300,3.5,3.5,58,0.00,BKN,OVC,0.00,WeatherDisplay:10.37,2013-02-12 17:50:00,
2013-02-12 12:55:00,54.1,40.1,29.87,WNW,300,3.5,3.5,59,0.00,BKN,OVC,0.00,WeatherDisplay:10.37,2013-02-12 17:55:00,
2013-02-12 13:00:00,54.1,39.7,29.87,WNW,300,3.5,3.5,58,0.00,BKN,OVC,0.00,WeatherDisplay:10.37,2013-02-12 18:00:00,
2013-02-12 13:05:00,54.3,39.8,29.87,WNW,300,3.5,3.5,58,0.00,BKN,OVC,0.00,WeatherDisplay:10.37,2013-02-12 18:05:00,
2013-02-12 13:10:00,54.3,39.8,29.87,WNW,300,3.5,3.5,58,0.00,BKN,OVC,0.00,WeatherDisplay:10.37,2013-02-12 18:10:00,
2013-02-12 13:15:00,54.3,39.4,29.87,WNW,300,3.5,3.5,57,0.00,BKN,OVC,0.00,WeatherDisplay:10.37,2013-02-12 18:15:00,
2013-02-12 13:20:00,54.3,38.9,29.86,WNW,300,0.0,0.0,56,0.00,BKN,OVC,0.00,WeatherDisplay:10.37,2013-02-12 18:20:00,
2013-02-12 13:25:00,54.3,39.4,29.86,WNW,300,0.0,0.0,57,0.00,BKN,OVC,0.00,WeatherDisplay:10.37,2013-02-12 18:25:00,
2013-02-12 13:30:00,54.5,39.1,29.86,WNW,300,0.0,0.0,56,0.00,BKN,OVC,0.00,WeatherDisplay:10.37,2013-02-12 18:30:00,
2013-02-12 13:35:00,54.3,38.9,29.85,WNW,300,0.0,0.0,56,0.00,BKN,OVC,0.00,WeatherDisplay:10.37,2013-02-12 18:35:00,
2013-02-12 13:40:00,54.3,38.5,29.85,WNW,300,0.0,0.0,55,0.00,BKN,OVC,0.00,WeatherDisplay:10.37,2013-02-12 18:40:00,
2013-02-12 13:45:00,54.5,38.2,29.85,WNW,300,0.0,0.0,54,0.00,BKN,OVC,0.00,WeatherDisplay:10.37,2013-02-12 18:45:00,
2013-02-12 13:50:00,54.3,38.9,29.85,WNW,300,0.0,0.0,56,0.00,BKN,OVC,0.00,WeatherDisplay:10.37,2013-02-12 18:50:00,
2013-02-12 13:55:00,54.3,39.4,29.84,WNW,300,0.0,0.0,57,0.00,BKN,OVC,0.00,WeatherDisplay:10.37,2013-02-12 18:55:00,
2013-02-12 14:00:00,54.3,38.9,29.84,WNW,300,0.0,0.0,56,0.00,BKN,OVC,0.00,WeatherDisplay:10.37,2013-02-12 19:00:00,
2013-02-12 14:05:00,54.3,39.4,29.84,WNW,300,0.0,0.0,57,0.00,BKN,OVC,0.00,WeatherDisplay:10.37,2013-02-12 19:05:00,
2013-02-12 14:10:00,54.3,39.8,29.83,WNW,300,0.0,0.0,58,0.00,BKN,OVC,0.00,WeatherDisplay:10.37,2013-02-12 19:10:00,
2013-02-12 14:15:00,54.1,39.7,29.83,WNW,300,0.0,0.0,58,0.00,BKN,OVC,0.00,WeatherDisplay:10.37,2013-02-12 19:15:00,
2013-02-12 14:20:00,54.1,40.1,29.83,WNW,290,3.5,3.5,59,0.00,OVC,,0.00,WeatherDisplay:10.37,2013-02-12 19:20:00,
2013-02-12 14:25:00,54.0,39.9,29.83,WNW,290,3.5,3.5,59,0.00,OVC,,0.00,WeatherDisplay:10.37,2013-02-12 19:25:00,
2013-02-12 14:30:00,53.8,39.8,29.83,WNW,290,3.5,3.5,59,0.00,OVC,,0.00,WeatherDisplay:10.37,2013-02-12 19:30:00,
2013-02-12 14:35:00,53.8,39.3,29.83,WNW,290,3.5,3.5,58,0.00,OVC,,0.00,WeatherDisplay:10.37,2013-02-12 19:35:00,
2013-02-12 14:40:00,53.8,39.8,29.84,WNW,290,3.5,3.5,59,0.00,OVC,,0.00,WeatherDisplay:10.37,2013-02-12 19:40:00,
2013-02-12 14:45:00,53.8,40.2,29.85,WNW,290,3.5,3.5,60,0.00,OVC,,0.00,WeatherDisplay:10.37,2013-02-12 19:45:00,
2013-02-12 14:50:00,53.8,40.6,29.85,WNW,290,3.5,3.5,61,0.00,OVC,,0.00,WeatherDisplay:10.37,2013-02-12 19:50:00,
2013-02-12 14:55:00,53.6,40.5,29.85,WNW,290,3.5,3.5,61,0.00,OVC,,0.00,WeatherDisplay:10.37,2013-02-12 19:55:00,
2013-02-12 15:00:00,53.4,40.3,29.84,WNW,290,3.5,3.5,61,0.00,OVC,,0.00,WeatherDisplay:10.37,2013-02-12 20:00:00,
2013-02-12 15:05:00,53.4,40.7,29.83,WNW,290,3.5,3.5,62,0.00,OVC,,0.00,WeatherDisplay:10.37,2013-02-12 20:05:00,
2013-02-12 15:10:00,53.2,41.0,29.83,WNW,290,3.5,3.5,63,0.00,OVC,,0.00,WeatherDisplay:10.37,2013-02-12 20:10:00,
2013-02-12 15:15:00,52.9,41.0,29.84,WNW,290,3.5,3.5,64,0.00,OVC,,0.00,WeatherDisplay:10.37,2013-02-12 20:15:00,
2013-02-12 15:20:00,52.7,42.0,29.84,SW,230,3.5,3.5,67,0.00,OVC,,0.00,WeatherDisplay:10.37,2013-02-12 20:20:00,
2013-02-12 15:25:00,52.5,42.6,29.84,SW,230,3.5,3.5,69,0.00,OVC,,0.00,WeatherDisplay:10.37,2013-02-12 20:25:00,
2013-02-12 15:30:00,52.3,42.8,29.84,SW,230,3.5,3.5,70,0.00,OVC,,0.00,WeatherDisplay:10.37,2013-02-12 20:30:00,
2013-02-12 15:35:00,52.0,42.5,29.84,SW,230,3.5,3.5,70,0.00,OVC,,0.00,WeatherDisplay:10.37,2013-02-12 20:35:00,
2013-02-12 15:40:00,51.8,43.1,29.83,SW,230,3.5,3.5,72,0.00,OVC,,0.00,WeatherDisplay:10.37,2013-02-12 20:40:00,
2013-02-12 15:45:00,51.6,43.2,29.83,SW,230,3.5,3.5,73,0.00,OVC,,0.00,WeatherDisplay:10.37,2013-02-12 20:45:00,
2013-02-12 15:50:00,51.4,43.4,29.82,SW,230,3.5,3.5,74,0.00,OVC,,0.00,WeatherDisplay:10.37,2013-02-12 20:50:00,
2013-02-12 15:55:00,51.4,43.4,29.81,SW,230,3.5,3.5,74,0.00,OVC,,0.00,WeatherDisplay:10.37,2013-02-12 20:55:00,
2013-02-12 16:00:00,51.1,43.4,29.81,SW,230,3.5,3.5,75,0.00,OVC,,0.00,WeatherDisplay:10.37,2013-02-12 21:00:00,
2013-02-12 16:05:00,50.9,42.9,29.80,SW,230,3.5,3.5,74,0.00,OVC,,0.00,WeatherDisplay:10.37,2013-02-12 21:05:00,
2013-02-12 16:10:00,50.7,43.4,29.81,SW,230,3.5,3.5,76,0.00,OVC,,0.00,WeatherDisplay:10.37,2013-02-12 21:10:00,
2013-02-12 16:15:00,50.7,43.8,29.82,SW,230,3.5,3.5,77,0.00,OVC,,0.00,WeatherDisplay:10.37,2013-02-12 21:15:00,
2013-02-12 16:20:00,50.5,43.9,29.82,SW,230,0.0,0.0,78,0.00,OVC,,0.00,WeatherDisplay:10.37,2013-02-12 21:20:00,
2013-02-12 16:25:00,50.4,43.8,29.81,SW,230,0.0,0.0,78,0.00,OVC,,0.00,WeatherDisplay:10.37,2013-02-12 21:25:00,
2013-02-12 16:30:00,50.2,43.9,29.80,SW,230,0.0,0.0,79,0.00,OVC,,0.00,WeatherDisplay:10.37,2013-02-12 21:30:00,
2013-02-12 16:35:00,49.8,43.9,29.79,SW,230,0.0,0.0,80,0.00,OVC,,0.00,WeatherDisplay:10.37,2013-02-12 21:35:00,
2013-02-12 16:40:00,49.8,43.9,29.77,SW,230,0.0,0.0,80,0.02,RA,OVC,0.02,WeatherDisplay:10.37,2013-02-12 21:40:00,
2013-02-12 16:45:00,49.6,44.0,29.76,SW,230,0.0,0.0,81,0.02,RA,OVC,0.02,WeatherDisplay:10.37,2013-02-12 21:45:00,
2013-02-12 16:50:00,49.6,44.0,29.76,SW,230,0.0,0.0,81,0.02,OVC,,0.02,WeatherDisplay:10.37,2013-02-12 21:50:00,
2013-02-12 16:55:00,49.5,43.9,29.77,SW,230,0.0,0.0,81,0.02,OVC,,0.02,WeatherDisplay:10.37,2013-02-12 21:55:00,
2013-02-12 17:00:00,49.5,44.2,29.77,SW,230,0.0,0.0,82,0.02,OVC,,0.02,WeatherDisplay:10.37,2013-02-12 22:00:00,
2013-02-12 17:05:00,49.3,44.3,29.76,SW,230,0.0,0.0,83,0.02,OVC,,0.02,WeatherDisplay:10.37,2013-02-12 22:05:00,
2013-02-12 17:10:00,49.3,44.3,29.76,SW,230,0.0,0.0,83,0.02,OVC,,0.02,WeatherDisplay:10.37,2013-02-12 22:10:00,
2013-02-12 17:15:00,49.3,44.3,29.75,SW,230,0.0,0.0,83,0.02,OVC,,0.02,WeatherDisplay:10.37,2013-02-12 22:15:00,
2013-02-12 17:20:00,49.1,44.5,29.74,NE,40,3.5,3.5,84,0.02,OVC,,0.02,WeatherDisplay:10.37,2013-02-12 22:20:00,
2013-02-12 17:25:00,49.1,44.5,29.73,NE,40,3.5,3.5,84,0.02,OVC,,0.02,WeatherDisplay:10.37,2013-02-12 22:25:00,
2013-02-12 17:30:00,49.1,44.5,29.73,NE,40,3.5,3.5,84,0.02,OVC,,0.02,WeatherDisplay:10.37,2013-02-12 22:30:00,
2013-02-12 17:35:00,49.1,44.5,29.74,NE,40,3.5,3.5,84,0.02,OVC,,0.02,WeatherDisplay:10.37,2013-02-12 22:35:00,
2013-02-12 17:40:00,49.1,44.5,29.75,NE,40,3.5,3.5,84,0.00,OVC,,0.02,WeatherDisplay:10.37,2013-02-12 22:40:00,
2013-02-12 17:45:00,48.9,44.6,29.78,NE,40,3.5,3.5,85,0.00,OVC,,0.02,WeatherDisplay:10.37,2013-02-12 22:45:00,
2013-02-12 17:50:00,48.7,44.7,29.80,NE,40,3.5,3.5,86,0.00,OVC,,0.02,WeatherDisplay:10.37,2013-02-12 22:50:00,
2013-02-12 17:55:00,48.7,44.7,29.81,NE,40,3.5,3.5,86,0.00,OVC,,0.02,WeatherDisplay:10.37,2013-02-12 22:55:00,
2013-02-12 18:00:00,48.7,44.7,29.80,NE,40,3.5,3.5,86,0.00,OVC,,0.02,WeatherDisplay:10.37,2013-02-12 23:00:00,
2013-02-12 18:05:00,48.7,44.7,29.80,NE,40,3.5,3.5,86,0.00,OVC,,0.02,WeatherDisplay:10.37,2013-02-12 23:05:00,
2013-02-12 18:10:00,48.6,44.6,29.80,NE,40,3.5,3.5,86,0.00,OVC,,0.02,WeatherDisplay:10.37,2013-02-12 23:10:00,
2013-02-12 18:15:00,48.6,44.6,29.80,NE,40,3.5,3.5,86,0.00,OVC,,0.02,WeatherDisplay:10.37,2013-02-12 23:15:00,
2013-02-12 18:20:00,48.4,44.4,29.80,SSE,160,3.5,3.5,86,0.00,OVC,,0.02,WeatherDisplay:10.37,2013-02-12 23:20:00,
2013-02-12 18:25:00,48.0,44.0,29.77,SSE,160,3.5,3.5,86,0.00,OVC,,0.02,WeatherDisplay:10.37,2013-02-12 23:25:00,
2013-02-12 18:30:00,48.0,44.3,29.77,SSE,160,3.5,3.5,87,0.00,OVC,,0.02,WeatherDisplay:10.37,2013-02-12 23:30:00,
2013-02-12 18:35:00,47.8,44.2,29.77,SSE,160,3.5,3.5,87,0.00,OVC,,0.02,WeatherDisplay:10.37,2013-02-12 23:35:00,
2013-02-12 18:40:00,47.7,44.0,29.77,SSE,160,3.5,3.5,87,0.00,OVC,,0.02,WeatherDisplay:10.37,2013-02-12 23:40:00,
2013-02-12 18:45:00,47.7,44.0,29.77,SSE,160,3.5,3.5,87,0.00,OVC,,0.02,WeatherDisplay:10.37,2013-02-12 23:45:00,
2013-02-12 18:50:00,47.7,44.0,29.76,SSE,160,3.5,3.5,87,0.00,OVC,,0.02,WeatherDisplay:10.37,2013-02-12 23:50:00,
2013-02-12 18:55:00,47.5,44.1,29.77,SSE,160,3.5,3.5,88,0.00,OVC,,0.02,WeatherDisplay:10.37,2013-02-12 23:55:00,
2013-02-12 19:00:00,47.5,44.1,29.78,SSE,160,3.5,3.5,88,0.00,OVC,,0.02,WeatherDisplay:10.37,2013-02-13 00:00:00,
2013-02-12 19:05:00,47.5,44.1,29.78,SSE,160,3.5,3.5,88,0.00,OVC,,0.02,WeatherDisplay:10.37,2013-02-13 00:05:00,
2013-02-12 19:10:00,47.3,43.9,29.78,SSE,160,3.5,3.5,88,0.00,OVC,,0.02,WeatherDisplay:10.37,2013-02-13 00:10:00,
2013-02-12 19:15:00,47.3,43.9,29.79,SSE,160,3.5,3.5,88,0.00,OVC,,0.02,WeatherDisplay:10.37,2013-02-13 00:15:00,
2013-02-12 19:20:00,47.3,43.9,29.78,ESE,110,5.8,5.8,88,0.00,OVC,,0.02,WeatherDisplay:10.37,2013-02-13 00:20:00,
2013-02-12 19:25:00,47.3,44.2,29.80,ESE,110,5.8,5.8,89,0.00,OVC,,0.02,WeatherDisplay:10.37,2013-02-13 00:25:00,
2013-02-12 19:30:00,47.1,44.0,29.79,ESE,110,5.8,5.8,89,0.00,OVC,,0.02,WeatherDisplay:10.37,2013-02-13 00:30:00,
2013-02-12 19:35:00,47.1,44.0,29.78,ESE,110,5.8,5.8,89,0.00,OVC,,0.02,WeatherDisplay:10.37,2013-02-13 00:35:00,
2013-02-12 19:40:00,47.1,44.0,29.77,ESE,110,5.8,5.8,89,0.00,OVC,,0.02,WeatherDisplay:10.37,2013-02-13 00:40:00,
2013-02-12 19:45:00,47.1,44.0,29.76,ESE,110,5.8,5.8,89,0.00,OVC,,0.02,WeatherDisplay:10.37,2013-02-13 00:45:00,
2013-02-12 19:50:00,46.9,43.9,29.78,ESE,110,5.8,5.8,89,0.00,OVC,,0.02,WeatherDisplay:10.37,2013-02-13 00:50:00,
2013-02-12 19:55:00,46.9,43.9,29.78,ESE,110,5.8,5.8,89,0.00,OVC,,0.02,WeatherDisplay:10.37,2013-02-13 00:55:00,
2013-02-12 20:00:00,46.9,43.9,29.77,ESE,110,5.8,5.8,89,0.00,OVC,,0.02,WeatherDisplay:10.37,2013-02-13 01:00:00,
2013-02-12 20:05:00,46.9,43.9,29.76,ESE,110,5.8,5.8,89,0.00,OVC,,0.02,WeatherDisplay:10.37,2013-02-13 01:05:00,
2013-02-12 20:10:00,46.9,44.2,29.78,ESE,110,5.8,5.8,90,0.00,OVC,,0.02,WeatherDisplay:10.37,2013-02-13 01:10:00,
2013-02-12 20:15:00,46.9,44.2,29.78,ESE,110,5.8,5.8,90,0.00,OVC,,0.02,WeatherDisplay:10.37,2013-02-13 01:15:00,
2013-02-12 20:20:00,46.9,44.2,29.79,East,90,8.1,8.1,90,0.00,-RA,OVC,0.02,WeatherDisplay:10.37,2013-02-13 01:20:00,
2013-02-12 20:25:00,46.9,44.2,29.78,East,90,8.1,8.1,90,0.00,-RA,OVC,0.02,WeatherDisplay:10.37,2013-02-13 01:25:00,
2013-02-12 20:30:00,46.8,44.3,29.80,East,90,8.1,8.1,91,0.00,-RA,OVC,0.02,WeatherDisplay:10.37,2013-02-13 01:30:00,
2013-02-12 20:35:00,46.8,44.3,29.79,East,90,8.1,8.1,91,0.00,-RA,OVC,0.02,WeatherDisplay:10.37,2013-02-13 01:35:00,
2013-02-12 20:40:00,46.8,44.3,29.77,East,90,8.1,8.1,91,0.00,-RA,OVC,0.02,WeatherDisplay:10.37,2013-02-13 01:40:00,
2013-02-12 20:45:00,46.8,44.3,29.76,East,90,8.1,8.1,91,0.00,-RA,OVC,0.02,WeatherDisplay:10.37,2013-02-13 01:45:00,
2013-02-12 20:50:00,46.8,44.3,29.77,East,90,8.1,8.1,91,0.00,-RA,OVC,0.02,WeatherDisplay:10.37,2013-02-13 01:50:00,
2013-02-12 20:55:00,46.8,44.3,29.77,East,90,8.1,8.1,91,0.00,-RA,OVC,0.02,WeatherDisplay:10.37,2013-02-13 01:55:00,
2013-02-12 21:00:00,46.8,44.3,29.77,East,90,8.1,8.1,91,0.00,-RA,OVC,0.02,WeatherDisplay:10.37,2013-02-13 02:00:00,
2013-02-12 21:05:00,46.8,44.3,29.77,East,90,8.1,8.1,91,0.00,-RA,OVC,0.02,WeatherDisplay:10.37,2013-02-13 02:05:00,
2013-02-12 21:10:00,46.8,44.3,29.76,East,90,8.1,8.1,91,0.00,-RA,OVC,0.02,WeatherDisplay:10.37,2013-02-13 02:10:00,
2013-02-12 21:15:00,46.6,44.1,29.77,East,90,8.1,8.1,91,0.00,-RA,OVC,0.02,WeatherDisplay:10.37,2013-02-13 02:15:00,
2013-02-12 21:20:00,46.6,44.1,29.77,East,90,5.8,5.8,91,0.00,OVC,,0.02,WeatherDisplay:10.37,2013-02-13 02:20:00,
2013-02-12 21:25:00,46.6,44.1,29.77,East,90,5.8,5.8,91,0.00,OVC,,0.02,WeatherDisplay:10.37,2013-02-13 02:25:00,
2013-02-12 21:30:00,46.6,44.1,29.78,East,90,5.8,5.8,91,0.00,OVC,,0.02,WeatherDisplay:10.37,2013-02-13 02:30:00,
2013-02-12 21:35:00,46.6,44.1,29.79,East,90,5.8,5.8,91,0.00,OVC,,0.02,WeatherDisplay:10.37,2013-02-13 02:35:00,
2013-02-12 21:40:00,46.2,43.7,29.75,East,90,5.8,5.8,91,0.00,OVC,,0.02,WeatherDisplay:10.37,2013-02-13 02:40:00,
2013-02-12 21:45:00,46.2,43.7,29.75,East,90,5.8,5.8,91,0.00,OVC,,0.02,WeatherDisplay:10.37,2013-02-13 02:45:00,
2013-02-12 21:50:00,46.2,43.7,29.76,East,90,5.8,5.8,91,0.00,OVC,,0.02,WeatherDisplay:10.37,2013-02-13 02:50:00,
2013-02-12 21:55:00,46.2,43.4,29.76,East,90,5.8,5.8,90,0.00,OVC,,0.02,WeatherDisplay:10.37,2013-02-13 02:55:00,
2013-02-12 22:00:00,45.7,42.9,29.76,East,90,5.8,5.8,90,0.00,OVC,,0.02,WeatherDisplay:10.37,2013-02-13 03:00:00,
2013-02-12 22:05:00,45.3,42.6,29.76,East,90,5.8,5.8,90,0.00,OVC,,0.02,WeatherDisplay:10.37,2013-02-13 03:05:00,
2013-02-12 22:10:00,45.1,42.4,29.76,East,90,5.8,5.8,90,0.00,OVC,,0.02,WeatherDisplay:10.37,2013-02-13 03:10:00,
2013-02-12 22:15:00,45.0,42.2,29.75,East,90,5.8,5.8,90,0.00,OVC,,0.02,WeatherDisplay:10.37,2013-02-13 03:15:00,
2013-02-12 22:20:00,44.6,41.6,29.75,East,100,9.2,9.2,89,0.00,-RA,OVC,0.02,WeatherDisplay:10.37,2013-02-13 03:20:00,
2013-02-12 22:25:00,44.4,41.4,29.75,East,100,9.2,9.2,89,0.00,-RA,OVC,0.02,WeatherDisplay:10.37,2013-02-13 03:25:00,
2013-02-12 22:30:00,44.4,41.7,29.75,East,100,9.2,9.2,90,0.00,-RA,OVC,0.02,WeatherDisplay:10.37,2013-02-13 03:30:00,
2013-02-12 22:35:00,44.4,41.7,29.75,East,100,9.2,9.2,90,0.00,-RA,OVC,0.02,WeatherDisplay:10.37,2013-02-13 03:35:00,
2013-02-12 22:40:00,44.4,41.7,29.75,East,100,9.2,9.2,90,0.00,-RA,OVC,0.02,WeatherDisplay:10.37,2013-02-13 03:40:00,
2013-02-12 22:45:00,44.2,41.5,29.74,East,100,9.2,9.2,90,0.00,-RA,OVC,0.02,WeatherDisplay:10.37,2013-02-13 03:45:00,
2013-02-12 22:50:00,44.2,41.5,29.74,East,100,9.2,9.2,90,0.00,-RA,OVC,0.02,WeatherDisplay:10.37,2013-02-13 03:50:00,
2013-02-12 22:55:00,44.2,41.5,29.74,East,100,9.2,9.2,90,0.00,-RA,OVC,0.02,WeatherDisplay:10.37,2013-02-13 03:55:00,
2013-02-12 23:00:00,44.2,41.5,29.73,East,100,9.2,9.2,90,0.00,-RA,OVC,0.02,WeatherDisplay:10.37,2013-02-13 04:00:00,
2013-02-12 23:05:00,44.2,41.5,29.73,East,100,9.2,9.2,90,0.00,-RA,OVC,0.02,WeatherDisplay:10.37,2013-02-13 04:05:00,
2013-02-12 23:10:00,44.1,41.3,29.73,East,100,9.2,9.2,90,0.00,-RA,OVC,0.02,WeatherDisplay:10.37,2013-02-13 04:10:00,
2013-02-12 23:15:00,44.1,41.3,29.71,East,100,9.2,9.2,90,0.00,-RA,OVC,0.02,WeatherDisplay:10.37,2013-02-13 04:15:00,
2013-02-12 23:20:00,44.1,41.3,29.70,East,80,24.2,24.2,90,0.00,-RA,OVC,0.02,WeatherDisplay:10.37,2013-02-13 04:20:00,
2013-02-12 23:25:00,43.9,41.1,29.70,East,80,24.2,24.2,90,0.00,-RA,OVC,0.02,WeatherDisplay:10.37,2013-02-13 04:25:00,
2013-02-12 23:30:00,43.9,41.1,29.70,East,80,24.2,24.2,90,0.00,-RA,OVC,0.02,WeatherDisplay:10.37,2013-02-13 04:30:00,
2013-02-12 23:35:00,43.9,41.1,29.70,East,80,24.2,24.2,90,0.00,-RA,OVC,0.02,WeatherDisplay:10.37,2013-02-13 04:35:00,
2013-02-12 23:40:00,43.9,41.1,29.71,East,80,24.2,24.2,90,0.00,-RA,OVC,0.02,WeatherDisplay:10.37,2013-02-13 04:40:00,
2013-02-12 23:45:00,43.9,41.1,29.71,East,80,24.2,24.2,90,0.00,-RA,OVC,0.02,WeatherDisplay:10.37,2013-02-13 04:45:00,
2013-02-12 23:50:00,43.9,41.1,29.71,ENE,70,20.7,20.7,90,0.00,-RA,OVC,0.02,WeatherDisplay:10.37,2013-02-13 04:50:00,
2013-02-12 23:55:00,44.1,41.3,29.71,ENE,70,20.7,20.7,90,0.00,-RA,OVC,0.02,WeatherDisplay:10.37,2013-02-13 04:55:00,